Smarca, Slovenia

07:38 AM CEST on oktober 23, 2018 (GMT +0200)
Skrjancevo | | Change Station

Viš 1047 ft 46.17 °N, 14.61 °E | Updated 7 minutes ago

Jasno
Jasno
37.3 °F
Feels Like 37 °F
N
0
Veter Spremenljivo Veter od SSZ
Gusts 1.0 mph

Danes
High -- | Low -- °F
--% Chance of Precip.
Yesterday
High -- | Low -- °F
Precip. -- v
Zračni tlak 30.30 v
Vidljivost 6.2 milje
Oblaki Few 400 ft
Pretezno oblacno 500 ft
Občutek zaradi vetra 37 °F
Rosišče 36 °F
Vlažnost 96%
Padavine 0.00 v
Snow Depth Not available.
7:29 AM 6:01 PM
Naraščajoča luna, 98% visible
METAR LOWK 230520Z 32004KT 9999 FEW004 BKN005 02/01 Q1026 TEMPO SCT005
Zračni tlak 30.30 v
Vidljivost 6.2 milje
Oblaki Few 400 ft
Pretezno oblacno 500 ft
Občutek zaradi vetra 37 °F
Rosišče 36 °F
Vlažnost 96%
Padavine 0.00 v
Snow Depth Not available.
7:29 AM 6:01 PM
Naraščajoča luna, 98% visible
METAR LOWK 230520Z 32004KT 9999 FEW004 BKN005 02/01 Q1026 TEMPO SCT005

Get Severe Weather Alerts

Thanks for signing up!

Be on the lookout for a verification email in your inbox.

You'll start receiving the daily forecast at 6 AM.

×

10-Day Weather Forecast

×

Almanac

Astronomija

Oct. 23, 2018 Rise Set
Actual Time
Civil Twilight
Nautical Twilight
Astronomical Twilight
Moon
Length Of Visible Light
Dolžina dneva
Tomorrow will be .
, % of the Moon is Illuminated

Današnji ekstremi

Country Highs Country Lows

Community

WunderPhotos

Category 6

Welcome to Category 6. This is the collective home for Weather Underground's featured writeups by Dr. Jeff Masters (right), Bob Henson (left), Chris Burt, and other regular contributors.

Nearby

Air Quality

  Air Quality AQ Index Pollutant
Not available.

Snow Depth

Station Depth Višina

Earthquake Activity

City Distance Mag. Time & Date
Minimum magnitude displayed is 2.5.

Coastal Water Temperatures

Mesto Temperatura

Stations

Nearby Weather Stations

Station Location Temp Občutek zaradi vetra Rosišče Vlažnost Veter Precip. Viš Obnovljeno Type